EDLN

Mönchengladbach Airport

Mönchengladbach, Germany
TAF EDLN 210800Z 2109/2118 30006KT CAVOK PROB30 TEMPO 2113/2117 20010KT SHRA SCT050CB
Issued Valid From Valid To
Jul-21 @ 08:00 UTC
(2 hours ago)
Jul-21 @ 09:00 UTC
(42 minutes ago)
Jul-21 @ 18:00 UTC
(in 8 hours)
Jul-21 @ 09:00 to Jul-21 @ 18:00
TAF EDLN 210800Z 2109/2118 30006KT CAVOK
Wind Visibility Clouds Conditions
300° at 6 knots 10,000+ meters
  • No significant clouds
Temporary  (Probability 30%) Jul-21 @ 13:00 to Jul-21 @ 17:00
PROB30 TEMPO 2113/2117 20010KT SHRA SCT050CB
Wind Clouds Conditions
200° at 10 knots
  • Scattered at 5,000' AGL
  • Rain
TAF EDLN 210800Z 2109/2118 30006KT CAVOK PROB30 TEMPO 2113/2117 20010KT SHRA SCT050CB
Issued Jul-21 @ 08:00 UTC
(2 hours ago)
Valid From Jul-21 @ 09:00 UTC
(42 minutes ago)
Valid To Jul-21 @ 18:00 UTC
(in 8 hours)
Jul-21 @ 09:00 - Jul-21 @ 18:00
Wind Visibility
300° at 6 knots 10,000+ meters
Clouds
  • No significant clouds
Conditions
Probability 30% Temporary Jul-21 @ 13:00 - Jul-21 @ 17:00
Wind
200° at 10 knots
Clouds
  • Scattered at 5,000' AGL
Conditions
  • Rain